sensor_id;sensor_type;location;lat;lon;timestamp;P1;durP1;ratioP1;P2;durP2;ratioP2
14377;SDS011;7272;53.668;9.578;2022-10-16T00:01:08;7.20;;;6.60;;
14377;SDS011;7272;53.668;9.578;2022-10-16T00:04:12;7.23;;;6.43;;
14377;SDS011;7272;53.668;9.578;2022-10-16T00:07:14;7.23;;;6.53;;
14377;SDS011;7272;53.668;9.578;2022-10-16T00:10:17;7.73;;;7.00;;
14377;SDS011;7272;53.668;9.578;2022-10-16T00:13:19;9.00;;;8.20;;
14377;SDS011;7272;53.668;9.578;2022-10-16T00:16:23;6.70;;;6.20;;
14377;SDS011;7272;53.668;9.578;2022-10-16T00:19:25;6.87;;;6.23;;
14377;SDS011;7272;53.668;9.578;2022-10-16T00:22:27;6.47;;;5.97;;
14377;SDS011;7272;53.668;9.578;2022-10-16T00:25:29;6.43;;;5.63;;
14377;SDS011;7272;53.668;9.578;2022-10-16T00:28:34;6.00;;;5.50;;
14377;SDS011;7272;53.668;9.578;2022-10-16T00:31:39;6.37;;;5.67;;
14377;SDS011;7272;53.668;9.578;2022-10-16T00:34:41;5.17;;;4.77;;
14377;SDS011;7272;53.668;9.578;2022-10-16T00:37:43;5.87;;;5.27;;
14377;SDS011;7272;53.668;9.578;2022-10-16T00:40:45;5.00;;;4.57;;
14377;SDS011;7272;53.668;9.578;2022-10-16T00:43:48;5.03;;;4.23;;
14377;SDS011;7272;53.668;9.578;2022-10-16T00:46:53;5.53;;;4.63;;
14377;SDS011;7272;53.668;9.578;2022-10-16T00:49:58;4.80;;;4.40;;
14377;SDS011;7272;53.668;9.578;2022-10-16T00:53:03;4.80;;;4.30;;
14377;SDS011;7272;53.668;9.578;2022-10-16T00:56:05;4.17;;;3.80;;
14377;SDS011;7272;53.668;9.578;2022-10-16T00:59:10;5.47;;;3.80;;
14377;SDS011;7272;53.668;9.578;2022-10-16T01:02:18;4.83;;;3.63;;
14377;SDS011;7272;53.668;9.578;2022-10-16T01:05:21;4.23;;;3.30;;
14377;SDS011;7272;53.668;9.578;2022-10-16T01:08:25;3.67;;;3.30;;
14377;SDS011;7272;53.668;9.578;2022-10-16T01:11:33;3.37;;;3.03;;
14377;SDS011;7272;53.668;9.578;2022-10-16T01:14:40;2.90;;;2.60;;
14377;SDS011;7272;53.668;9.578;2022-10-16T01:17:51;2.73;;;2.53;;
14377;SDS011;7272;53.668;9.578;2022-10-16T01:20:59;3.57;;;2.93;;
14377;SDS011;7272;53.668;9.578;2022-10-16T01:24:06;3.23;;;2.93;;
14377;SDS011;7272;53.668;9.578;2022-10-16T01:27:18;3.67;;;3.10;;
14377;SDS011;7272;53.668;9.578;2022-10-16T01:30:26;3.60;;;3.30;;
14377;SDS011;7272;53.668;9.578;2022-10-16T01:33:34;3.93;;;3.37;;
14377;SDS011;7272;53.668;9.578;2022-10-16T01:36:42;3.20;;;2.90;;
14377;SDS011;7272;53.668;9.578;2022-10-16T01:39:49;3.87;;;2.70;;
14377;SDS011;7272;53.668;9.578;2022-10-16T01:43:02;2.80;;;2.50;;
14377;SDS011;7272;53.668;9.578;2022-10-16T01:46:09;3.67;;;2.80;;
14377;SDS011;7272;53.668;9.578;2022-10-16T01:49:14;3.97;;;2.70;;
14377;SDS011;7272;53.668;9.578;2022-10-16T01:52:20;4.73;;;2.70;;
14377;SDS011;7272;53.668;9.578;2022-10-16T01:55:27;5.00;;;2.67;;
14377;SDS011;7272;53.668;9.578;2022-10-16T01:58:35;3.77;;;2.80;;
14377;SDS011;7272;53.668;9.578;2022-10-16T02:01:42;2.60;;;2.40;;
14377;SDS011;7272;53.668;9.578;2022-10-16T02:04:49;2.63;;;2.43;;
14377;SDS011;7272;53.668;9.578;2022-10-16T02:07:56;2.50;;;2.30;;
14377;SDS011;7272;53.668;9.578;2022-10-16T02:10:58;2.90;;;2.60;;
14377;SDS011;7272;53.668;9.578;2022-10-16T02:14:04;4.17;;;2.60;;
14377;SDS011;7272;53.668;9.578;2022-10-16T02:17:12;3.50;;;2.20;;
14377;SDS011;7272;53.668;9.578;2022-10-16T02:20:15;3.30;;;2.60;;
14377;SDS011;7272;53.668;9.578;2022-10-16T02:23:20;3.33;;;2.57;;
14377;SDS011;7272;53.668;9.578;2022-10-16T02:26:30;4.25;;;2.90;;
14377;SDS011;7272;53.668;9.578;2022-10-16T02:29:38;2.85;;;2.53;;
14377;SDS011;7272;53.668;9.578;2022-10-16T02:32:45;2.70;;;2.50;;
14377;SDS011;7272;53.668;9.578;2022-10-16T02:35:49;3.83;;;2.30;;
14377;SDS011;7272;53.668;9.578;2022-10-16T02:38:53;2.57;;;2.10;;
14377;SDS011;7272;53.668;9.578;2022-10-16T02:41:55;2.20;;;2.00;;
14377;SDS011;7272;53.668;9.578;2022-10-16T02:44:58;4.50;;;2.60;;
14377;SDS011;7272;53.668;9.578;2022-10-16T02:48:01;2.20;;;2.00;;
14377;SDS011;7272;53.668;9.578;2022-10-16T02:51:03;4.27;;;2.30;;
14377;SDS011;7272;53.668;9.578;2022-10-16T02:54:05;3.50;;;2.50;;
14377;SDS011;7272;53.668;9.578;2022-10-16T02:57:07;2.93;;;2.33;;
14377;SDS011;7272;53.668;9.578;2022-10-16T03:00:13;2.33;;;1.87;;
14377;SDS011;7272;53.668;9.578;2022-10-16T03:03:16;2.97;;;2.03;;
14377;SDS011;7272;53.668;9.578;2022-10-16T03:06:18;2.33;;;1.90;;
14377;SDS011;7272;53.668;9.578;2022-10-16T03:09:20;2.20;;;2.00;;
14377;SDS011;7272;53.668;9.578;2022-10-16T03:12:22;2.47;;;1.80;;
14377;SDS011;7272;53.668;9.578;2022-10-16T03:15:26;3.20;;;2.40;;
14377;SDS011;7272;53.668;9.578;2022-10-16T03:18:28;3.77;;;2.20;;
14377;SDS011;7272;53.668;9.578;2022-10-16T03:21:30;2.20;;;1.80;;
14377;SDS011;7272;53.668;9.578;2022-10-16T03:24:32;3.53;;;1.80;;
14377;SDS011;7272;53.668;9.578;2022-10-16T03:27:34;2.70;;;2.10;;
14377;SDS011;7272;53.668;9.578;2022-10-16T03:30:38;2.60;;;1.67;;
14377;SDS011;7272;53.668;9.578;2022-10-16T03:33:41;2.00;;;1.80;;
14377;SDS011;7272;53.668;9.578;2022-10-16T03:36:43;2.13;;;1.60;;
14377;SDS011;7272;53.668;9.578;2022-10-16T03:39:45;2.30;;;1.80;;
14377;SDS011;7272;53.668;9.578;2022-10-16T03:42:47;2.03;;;1.60;;
14377;SDS011;7272;53.668;9.578;2022-10-16T03:45:51;3.23;;;1.93;;
14377;SDS011;7272;53.668;9.578;2022-10-16T03:48:53;2.50;;;1.90;;
14377;SDS011;7272;53.668;9.578;2022-10-16T03:51:55;1.87;;;1.57;;
14377;SDS011;7272;53.668;9.578;2022-10-16T03:54:57;2.00;;;1.90;;
14377;SDS011;7272;53.668;9.578;2022-10-16T03:57:59;2.42;;;2.00;;
14377;SDS011;7272;53.668;9.578;2022-10-16T04:01:03;2.73;;;2.00;;
14377;SDS011;7272;53.668;9.578;2022-10-16T04:04:05;2.20;;;1.83;;
14377;SDS011;7272;53.668;9.578;2022-10-16T04:07:07;2.07;;;1.70;;
14377;SDS011;7272;53.668;9.578;2022-10-16T04:10:09;2.47;;;1.57;;
14377;SDS011;7272;53.668;9.578;2022-10-16T04:13:11;1.87;;;1.77;;
14377;SDS011;7272;53.668;9.578;2022-10-16T04:16:15;2.53;;;1.70;;
14377;SDS011;7272;53.668;9.578;2022-10-16T04:19:17;3.57;;;2.17;;
14377;SDS011;7272;53.668;9.578;2022-10-16T04:22:20;1.80;;;1.47;;
14377;SDS011;7272;53.668;9.578;2022-10-16T04:25:22;2.40;;;2.20;;
14377;SDS011;7272;53.668;9.578;2022-10-16T04:28:24;3.47;;;2.10;;
14377;SDS011;7272;53.668;9.578;2022-10-16T04:31:28;2.97;;;2.20;;
14377;SDS011;7272;53.668;9.578;2022-10-16T04:34:30;3.53;;;2.20;;
14377;SDS011;7272;53.668;9.578;2022-10-16T04:37:32;3.80;;;2.10;;
14377;SDS011;7272;53.668;9.578;2022-10-16T04:40:34;2.60;;;2.00;;
14377;SDS011;7272;53.668;9.578;2022-10-16T04:43:37;2.53;;;2.07;;
14377;SDS011;7272;53.668;9.578;2022-10-16T04:46:40;2.40;;;2.00;;
14377;SDS011;7272;53.668;9.578;2022-10-16T04:49:42;2.97;;;1.90;;
14377;SDS011;7272;53.668;9.578;2022-10-16T04:52:45;2.97;;;1.90;;
14377;SDS011;7272;53.668;9.578;2022-10-16T04:55:47;2.03;;;1.80;;
14377;SDS011;7272;53.668;9.578;2022-10-16T04:58:49;2.70;;;1.60;;
14377;SDS011;7272;53.668;9.578;2022-10-16T05:01:52;2.50;;;2.30;;
14377;SDS011;7272;53.668;9.578;2022-10-16T05:04:54;3.00;;;1.80;;
14377;SDS011;7272;53.668;9.578;2022-10-16T05:07:57;1.93;;;1.67;;
14377;SDS011;7272;53.668;9.578;2022-10-16T05:10:59;3.37;;;2.03;;
14377;SDS011;7272;53.668;9.578;2022-10-16T05:14:02;1.87;;;1.77;;
14377;SDS011;7272;53.668;9.578;2022-10-16T05:17:05;3.83;;;1.87;;
14377;SDS011;7272;53.668;9.578;2022-10-16T05:20:08;2.70;;;2.00;;
14377;SDS011;7272;53.668;9.578;2022-10-16T05:23:10;3.23;;;2.17;;
14377;SDS011;7272;53.668;9.578;2022-10-16T05:26:12;3.37;;;2.10;;
14377;SDS011;7272;53.668;9.578;2022-10-16T05:29:14;2.80;;;2.10;;
14377;SDS011;7272;53.668;9.578;2022-10-16T05:32:18;3.20;;;2.70;;
14377;SDS011;7272;53.668;9.578;2022-10-16T05:35:20;3.87;;;2.80;;
14377;SDS011;7272;53.668;9.578;2022-10-16T05:38:23;4.27;;;2.43;;
14377;SDS011;7272;53.668;9.578;2022-10-16T05:41:25;4.10;;;2.67;;
14377;SDS011;7272;53.668;9.578;2022-10-16T05:44:27;2.67;;;2.47;;
14377;SDS011;7272;53.668;9.578;2022-10-16T05:47:30;3.90;;;2.90;;
14377;SDS011;7272;53.668;9.578;2022-10-16T05:50:32;3.40;;;2.83;;
14377;SDS011;7272;53.668;9.578;2022-10-16T05:53:35;4.43;;;3.10;;
14377;SDS011;7272;53.668;9.578;2022-10-16T05:56:39;4.10;;;3.50;;
14377;SDS011;7272;53.668;9.578;2022-10-16T05:59:41;3.97;;;3.57;;
14377;SDS011;7272;53.668;9.578;2022-10-16T06:02:44;4.73;;;3.60;;
14377;SDS011;7272;53.668;9.578;2022-10-16T06:05:46;5.33;;;3.60;;
14377;SDS011;7272;53.668;9.578;2022-10-16T06:08:49;3.63;;;3.30;;
14377;SDS011;7272;53.668;9.578;2022-10-16T06:11:51;4.03;;;3.63;;
14377;SDS011;7272;53.668;9.578;2022-10-16T06:14:53;4.63;;;3.80;;
14377;SDS011;7272;53.668;9.578;2022-10-16T06:17:57;6.30;;;4.13;;
14377;SDS011;7272;53.668;9.578;2022-10-16T06:20:59;6.43;;;4.10;;
14377;SDS011;7272;53.668;9.578;2022-10-16T06:24:02;6.83;;;4.20;;
14377;SDS011;7272;53.668;9.578;2022-10-16T06:27:04;7.43;;;3.87;;
14377;SDS011;7272;53.668;9.578;2022-10-16T06:30:08;5.00;;;3.97;;
14377;SDS011;7272;53.668;9.578;2022-10-16T06:33:12;4.60;;;4.20;;
14377;SDS011;7272;53.668;9.578;2022-10-16T06:36:16;5.80;;;5.20;;
14377;SDS011;7272;53.668;9.578;2022-10-16T06:39:19;5.13;;;4.63;;
14377;SDS011;7272;53.668;9.578;2022-10-16T06:42:21;4.90;;;4.40;;
14377;SDS011;7272;53.668;9.578;2022-10-16T06:45:23;5.07;;;4.57;;
14377;SDS011;7272;53.668;9.578;2022-10-16T06:48:27;4.03;;;3.73;;
14377;SDS011;7272;53.668;9.578;2022-10-16T06:51:29;7.03;;;5.03;;
14377;SDS011;7272;53.668;9.578;2022-10-16T06:54:34;6.90;;;5.00;;
14377;SDS011;7272;53.668;9.578;2022-10-16T06:57:36;5.47;;;4.67;;
14377;SDS011;7272;53.668;9.578;2022-10-16T07:00:38;4.93;;;4.53;;
14377;SDS011;7272;53.668;9.578;2022-10-16T07:03:42;6.10;;;5.50;;
14377;SDS011;7272;53.668;9.578;2022-10-16T07:06:45;5.90;;;4.80;;
14377;SDS011;7272;53.668;9.578;2022-10-16T07:09:47;6.75;;;5.57;;
14377;SDS011;7272;53.668;9.578;2022-10-16T07:12:49;5.17;;;4.67;;
14377;SDS011;7272;53.668;9.578;2022-10-16T07:15:51;6.57;;;5.03;;
14377;SDS011;7272;53.668;9.578;2022-10-16T07:18:55;6.23;;;4.40;;
14377;SDS011;7272;53.668;9.578;2022-10-16T07:21:59;5.57;;;4.93;;
14377;SDS011;7272;53.668;9.578;2022-10-16T07:25:01;4.57;;;4.17;;
14377;SDS011;7272;53.668;9.578;2022-10-16T07:28:03;5.53;;;4.87;;
14377;SDS011;7272;53.668;9.578;2022-10-16T07:31:06;5.53;;;5.00;;
14377;SDS011;7272;53.668;9.578;2022-10-16T07:34:13;4.53;;;4.13;;
14377;SDS011;7272;53.668;9.578;2022-10-16T07:37:17;5.10;;;4.60;;
14377;SDS011;7272;53.668;9.578;2022-10-16T07:40:19;6.32;;;5.82;;
14377;SDS011;7272;53.668;9.578;2022-10-16T07:43:21;5.00;;;4.50;;
14377;SDS011;7272;53.668;9.578;2022-10-16T07:46:23;5.30;;;4.77;;
14377;SDS011;7272;53.668;9.578;2022-10-16T07:49:27;4.80;;;4.40;;
14377;SDS011;7272;53.668;9.578;2022-10-16T07:52:29;5.07;;;4.67;;
14377;SDS011;7272;53.668;9.578;2022-10-16T07:55:31;4.80;;;4.30;;
14377;SDS011;7272;53.668;9.578;2022-10-16T07:58:33;5.30;;;4.40;;
14377;SDS011;7272;53.668;9.578;2022-10-16T08:01:37;6.77;;;4.67;;
14377;SDS011;7272;53.668;9.578;2022-10-16T08:04:41;5.70;;;4.80;;
14377;SDS011;7272;53.668;9.578;2022-10-16T08:07:44;4.70;;;4.20;;
14377;SDS011;7272;53.668;9.578;2022-10-16T08:10:50;4.93;;;4.40;;
14377;SDS011;7272;53.668;9.578;2022-10-16T08:13:52;6.13;;;4.33;;
14377;SDS011;7272;53.668;9.578;2022-10-16T08:16:54;4.97;;;4.40;;
14377;SDS011;7272;53.668;9.578;2022-10-16T08:19:57;4.67;;;4.27;;
14377;SDS011;7272;53.668;9.578;2022-10-16T08:23:00;4.90;;;4.10;;
14377;SDS011;7272;53.668;9.578;2022-10-16T08:26:03;5.07;;;4.57;;
14377;SDS011;7272;53.668;9.578;2022-10-16T08:29:07;5.17;;;4.77;;
14377;SDS011;7272;53.668;9.578;2022-10-16T08:32:09;5.23;;;4.73;;
14377;SDS011;7272;53.668;9.578;2022-10-16T08:35:12;7.03;;;4.30;;
14377;SDS011;7272;53.668;9.578;2022-10-16T08:38:15;5.47;;;5.07;;
14377;SDS011;7272;53.668;9.578;2022-10-16T08:41:22;5.47;;;4.37;;
14377;SDS011;7272;53.668;9.578;2022-10-16T08:44:40;3.90;;;3.53;;
14377;SDS011;7272;53.668;9.578;2022-10-16T08:48:00;5.50;;;4.00;;
14377;SDS011;7272;53.668;9.578;2022-10-16T08:51:19;4.27;;;3.83;;
14377;SDS011;7272;53.668;9.578;2022-10-16T08:54:26;4.23;;;3.73;;
14377;SDS011;7272;53.668;9.578;2022-10-16T08:57:31;4.43;;;3.90;;
14377;SDS011;7272;53.668;9.578;2022-10-16T09:00:33;3.90;;;3.57;;
14377;SDS011;7272;53.668;9.578;2022-10-16T09:03:43;4.63;;;2.90;;
14377;SDS011;7272;53.668;9.578;2022-10-16T09:07:04;3.90;;;3.17;;
14377;SDS011;7272;53.668;9.578;2022-10-16T09:10:16;2.83;;;2.63;;
14377;SDS011;7272;53.668;9.578;2022-10-16T09:13:27;3.58;;;3.28;;
14377;SDS011;7272;53.668;9.578;2022-10-16T09:16:33;5.10;;;3.40;;
14377;SDS011;7272;53.668;9.578;2022-10-16T09:19:38;3.73;;;2.90;;
14377;SDS011;7272;53.668;9.578;2022-10-16T09:22:48;4.63;;;3.33;;
14377;SDS011;7272;53.668;9.578;2022-10-16T09:25:53;3.30;;;3.00;;
14377;SDS011;7272;53.668;9.578;2022-10-16T09:28:57;3.33;;;3.03;;
14377;SDS011;7272;53.668;9.578;2022-10-16T09:32:06;3.47;;;3.13;;
14377;SDS011;7272;53.668;9.578;2022-10-16T09:35:14;3.33;;;2.70;;
14377;SDS011;7272;53.668;9.578;2022-10-16T09:38:23;3.70;;;2.63;;
14377;SDS011;7272;53.668;9.578;2022-10-16T09:41:28;3.00;;;2.70;;
14377;SDS011;7272;53.668;9.578;2022-10-16T09:44:30;3.87;;;2.17;;
14377;SDS011;7272;53.668;9.578;2022-10-16T09:47:35;3.83;;;2.67;;
14377;SDS011;7272;53.668;9.578;2022-10-16T09:50:43;4.43;;;2.53;;
14377;SDS011;7272;53.668;9.578;2022-10-16T09:53:58;3.57;;;2.27;;
14377;SDS011;7272;53.668;9.578;2022-10-16T09:57:05;3.83;;;2.40;;
14377;SDS011;7272;53.668;9.578;2022-10-16T10:00:09;3.73;;;2.40;;
14377;SDS011;7272;53.668;9.578;2022-10-16T10:03:11;2.90;;;2.60;;
14377;SDS011;7272;53.668;9.578;2022-10-16T10:06:18;2.33;;;1.93;;
14377;SDS011;7272;53.668;9.578;2022-10-16T10:09:25;3.33;;;2.30;;
14377;SDS011;7272;53.668;9.578;2022-10-16T10:12:30;4.27;;;2.27;;
14377;SDS011;7272;53.668;9.578;2022-10-16T10:15:35;2.90;;;1.93;;
14377;SDS011;7272;53.668;9.578;2022-10-16T10:18:43;3.83;;;2.27;;
14377;SDS011;7272;53.668;9.578;2022-10-16T10:21:45;3.17;;;2.00;;
14377;SDS011;7272;53.668;9.578;2022-10-16T10:24:55;3.43;;;1.80;;
14377;SDS011;7272;53.668;9.578;2022-10-16T10:28:32;2.73;;;2.30;;
14377;SDS011;7272;53.668;9.578;2022-10-16T10:31:47;2.43;;;1.77;;
14377;SDS011;7272;53.668;9.578;2022-10-16T10:35:03;3.75;;;2.20;;
14377;SDS011;7272;53.668;9.578;2022-10-16T10:38:18;4.47;;;2.60;;
14377;SDS011;7272;53.668;9.578;2022-10-16T10:45:13;4.43;;;2.27;;
14377;SDS011;7272;53.668;9.578;2022-10-16T10:48:21;3.17;;;2.00;;
14377;SDS011;7272;53.668;9.578;2022-10-16T10:51:43;3.40;;;1.90;;
14377;SDS011;7272;53.668;9.578;2022-10-16T10:54:54;2.83;;;1.60;;
14377;SDS011;7272;53.668;9.578;2022-10-16T10:58:10;3.80;;;1.77;;
14377;SDS011;7272;53.668;9.578;2022-10-16T11:01:35;2.80;;;1.70;;
14377;SDS011;7272;53.668;9.578;2022-10-16T11:05:00;3.90;;;1.57;;
14377;SDS011;7272;53.668;9.578;2022-10-16T11:08:21;2.20;;;1.43;;
14377;SDS011;7272;53.668;9.578;2022-10-16T11:11:30;3.90;;;1.57;;
14377;SDS011;7272;53.668;9.578;2022-10-16T11:14:40;5.00;;;1.57;;
14377;SDS011;7272;53.668;9.578;2022-10-16T11:17:48;5.40;;;1.67;;
14377;SDS011;7272;53.668;9.578;2022-10-16T11:20:54;3.90;;;1.60;;
14377;SDS011;7272;53.668;9.578;2022-10-16T11:24:01;1.73;;;1.23;;
14377;SDS011;7272;53.668;9.578;2022-10-16T11:27:12;3.75;;;1.55;;
14377;SDS011;7272;53.668;9.578;2022-10-16T11:30:20;3.50;;;1.40;;
14377;SDS011;7272;53.668;9.578;2022-10-16T11:33:27;2.47;;;1.40;;
14377;SDS011;7272;53.668;9.578;2022-10-16T11:36:35;3.30;;;1.30;;
14377;SDS011;7272;53.668;9.578;2022-10-16T11:39:40;3.87;;;1.27;;
14377;SDS011;7272;53.668;9.578;2022-10-16T11:42:46;3.67;;;1.43;;
14377;SDS011;7272;53.668;9.578;2022-10-16T11:45:55;3.67;;;1.40;;
14377;SDS011;7272;53.668;9.578;2022-10-16T11:49:00;4.07;;;1.58;;
14377;SDS011;7272;53.668;9.578;2022-10-16T11:52:11;5.07;;;1.30;;
14377;SDS011;7272;53.668;9.578;2022-10-16T11:55:21;2.73;;;1.67;;
14377;SDS011;7272;53.668;9.578;2022-10-16T11:58:31;3.07;;;1.03;;
14377;SDS011;7272;53.668;9.578;2022-10-16T12:01:41;4.23;;;1.37;;
14377;SDS011;7272;53.668;9.578;2022-10-16T12:04:48;1.93;;;1.40;;
14377;SDS011;7272;53.668;9.578;2022-10-16T12:08:02;1.73;;;1.17;;
14377;SDS011;7272;53.668;9.578;2022-10-16T12:11:20;2.50;;;1.40;;
14377;SDS011;7272;53.668;9.578;2022-10-16T12:14:36;2.40;;;1.40;;
14377;SDS011;7272;53.668;9.578;2022-10-16T12:17:41;3.27;;;1.40;;
14377;SDS011;7272;53.668;9.578;2022-10-16T12:20:43;2.03;;;1.13;;
14377;SDS011;7272;53.668;9.578;2022-10-16T12:24:00;5.73;;;1.30;;
14377;SDS011;7272;53.668;9.578;2022-10-16T12:27:05;4.50;;;1.27;;
14377;SDS011;7272;53.668;9.578;2022-10-16T12:30:22;3.23;;;1.43;;
14377;SDS011;7272;53.668;9.578;2022-10-16T12:33:29;3.03;;;1.33;;
14377;SDS011;7272;53.668;9.578;2022-10-16T12:36:33;3.85;;;1.70;;
14377;SDS011;7272;53.668;9.578;2022-10-16T12:39:36;6.13;;;1.50;;
14377;SDS011;7272;53.668;9.578;2022-10-16T12:42:39;2.60;;;1.30;;
14377;SDS011;7272;53.668;9.578;2022-10-16T12:45:41;3.13;;;1.40;;
14377;SDS011;7272;53.668;9.578;2022-10-16T12:48:45;3.10;;;1.20;;
14377;SDS011;7272;53.668;9.578;2022-10-16T12:51:48;3.23;;;1.20;;
14377;SDS011;7272;53.668;9.578;2022-10-16T12:54:50;2.97;;;1.40;;
14377;SDS011;7272;53.668;9.578;2022-10-16T12:57:57;3.43;;;1.40;;
14377;SDS011;7272;53.668;9.578;2022-10-16T13:01:10;4.70;;;1.50;;
14377;SDS011;7272;53.668;9.578;2022-10-16T13:04:23;2.60;;;1.13;;
14377;SDS011;7272;53.668;9.578;2022-10-16T13:07:39;5.40;;;1.50;;
14377;SDS011;7272;53.668;9.578;2022-10-16T13:10:57;2.30;;;1.40;;
14377;SDS011;7272;53.668;9.578;2022-10-16T13:17:29;2.47;;;1.40;;
14377;SDS011;7272;53.668;9.578;2022-10-16T13:20:42;3.67;;;1.60;;
14377;SDS011;7272;53.668;9.578;2022-10-16T13:23:56;2.67;;;1.30;;
14377;SDS011;7272;53.668;9.578;2022-10-16T13:27:05;2.47;;;1.20;;
14377;SDS011;7272;53.668;9.578;2022-10-16T13:30:15;2.23;;;1.30;;
14377;SDS011;7272;53.668;9.578;2022-10-16T13:33:20;3.40;;;1.20;;
14377;SDS011;7272;53.668;9.578;2022-10-16T13:36:35;4.80;;;1.80;;
14377;SDS011;7272;53.668;9.578;2022-10-16T13:39:45;2.17;;;1.37;;
14377;SDS011;7272;53.668;9.578;2022-10-16T13:42:48;4.67;;;1.60;;
14377;SDS011;7272;53.668;9.578;2022-10-16T13:45:55;3.43;;;1.43;;
14377;SDS011;7272;53.668;9.578;2022-10-16T13:48:59;2.87;;;1.40;;
14377;SDS011;7272;53.668;9.578;2022-10-16T13:52:04;3.37;;;1.43;;
14377;SDS011;7272;53.668;9.578;2022-10-16T13:55:09;3.00;;;1.30;;
14377;SDS011;7272;53.668;9.578;2022-10-16T13:58:13;3.93;;;1.40;;
14377;SDS011;7272;53.668;9.578;2022-10-16T14:01:16;3.70;;;1.50;;
14377;SDS011;7272;53.668;9.578;2022-10-16T14:04:20;4.17;;;1.40;;
14377;SDS011;7272;53.668;9.578;2022-10-16T14:07:24;5.50;;;1.60;;
14377;SDS011;7272;53.668;9.578;2022-10-16T14:10:28;1.23;;;1.13;;
14377;SDS011;7272;53.668;9.578;2022-10-16T14:13:34;2.73;;;1.30;;
14377;SDS011;7272;53.668;9.578;2022-10-16T14:16:39;3.63;;;1.43;;
14377;SDS011;7272;53.668;9.578;2022-10-16T14:19:45;3.30;;;1.50;;
14377;SDS011;7272;53.668;9.578;2022-10-16T14:22:57;4.30;;;1.47;;
14377;SDS011;7272;53.668;9.578;2022-10-16T14:26:05;3.05;;;1.73;;
14377;SDS011;7272;53.668;9.578;2022-10-16T14:29:15;2.67;;;1.48;;
14377;SDS011;7272;53.668;9.578;2022-10-16T14:32:22;5.40;;;1.37;;
14377;SDS011;7272;53.668;9.578;2022-10-16T14:35:26;3.00;;;1.53;;
14377;SDS011;7272;53.668;9.578;2022-10-16T14:38:32;3.97;;;1.50;;
14377;SDS011;7272;53.668;9.578;2022-10-16T14:41:40;3.67;;;1.30;;
14377;SDS011;7272;53.668;9.578;2022-10-16T14:44:45;4.73;;;1.73;;
14377;SDS011;7272;53.668;9.578;2022-10-16T14:47:50;4.10;;;1.57;;
14377;SDS011;7272;53.668;9.578;2022-10-16T14:50:54;2.23;;;1.23;;
14377;SDS011;7272;53.668;9.578;2022-10-16T14:53:58;4.13;;;1.73;;
14377;SDS011;7272;53.668;9.578;2022-10-16T14:57:02;3.83;;;1.60;;
14377;SDS011;7272;53.668;9.578;2022-10-16T15:00:04;4.87;;;1.30;;
14377;SDS011;7272;53.668;9.578;2022-10-16T15:03:15;3.37;;;1.20;;
14377;SDS011;7272;53.668;9.578;2022-10-16T15:06:17;3.30;;;1.30;;
14377;SDS011;7272;53.668;9.578;2022-10-16T15:09:20;4.82;;;1.60;;
14377;SDS011;7272;53.668;9.578;2022-10-16T15:12:23;3.40;;;1.47;;
14377;SDS011;7272;53.668;9.578;2022-10-16T15:15:27;4.10;;;1.40;;
14377;SDS011;7272;53.668;9.578;2022-10-16T15:18:38;2.27;;;1.13;;
14377;SDS011;7272;53.668;9.578;2022-10-16T15:21:40;2.90;;;1.20;;
14377;SDS011;7272;53.668;9.578;2022-10-16T15:24:44;3.77;;;1.33;;
14377;SDS011;7272;53.668;9.578;2022-10-16T15:27:46;2.60;;;1.43;;
14377;SDS011;7272;53.668;9.578;2022-10-16T15:30:48;2.97;;;1.40;;
14377;SDS011;7272;53.668;9.578;2022-10-16T15:33:51;3.10;;;1.40;;
14377;SDS011;7272;53.668;9.578;2022-10-16T15:36:58;3.67;;;1.77;;
14377;SDS011;7272;53.668;9.578;2022-10-16T15:40:06;3.00;;;1.23;;
14377;SDS011;7272;53.668;9.578;2022-10-16T15:43:09;2.30;;;1.30;;
14377;SDS011;7272;53.668;9.578;2022-10-16T15:46:12;2.83;;;1.20;;
14377;SDS011;7272;53.668;9.578;2022-10-16T15:49:15;3.43;;;1.27;;
14377;SDS011;7272;53.668;9.578;2022-10-16T15:52:18;3.22;;;1.55;;
14377;SDS011;7272;53.668;9.578;2022-10-16T15:55:21;6.17;;;5.07;;
14377;SDS011;7272;53.668;9.578;2022-10-16T15:58:23;6.40;;;5.10;;
14377;SDS011;7272;53.668;9.578;2022-10-16T16:01:25;6.37;;;4.83;;
14377;SDS011;7272;53.668;9.578;2022-10-16T16:04:29;5.50;;;2.13;;
14377;SDS011;7272;53.668;9.578;2022-10-16T16:07:32;2.70;;;1.70;;
14377;SDS011;7272;53.668;9.578;2022-10-16T16:10:36;2.43;;;2.23;;
14377;SDS011;7272;53.668;9.578;2022-10-16T16:13:38;3.60;;;1.77;;
14377;SDS011;7272;53.668;9.578;2022-10-16T16:16:41;8.90;;;6.70;;
14377;SDS011;7272;53.668;9.578;2022-10-16T16:19:45;11.90;;;10.10;;
14377;SDS011;7272;53.668;9.578;2022-10-16T16:22:47;10.13;;;9.23;;
14377;SDS011;7272;53.668;9.578;2022-10-16T16:26:03;7.00;;;4.30;;
14377;SDS011;7272;53.668;9.578;2022-10-16T16:29:07;3.13;;;1.93;;
14377;SDS011;7272;53.668;9.578;2022-10-16T16:32:10;2.30;;;1.63;;
14377;SDS011;7272;53.668;9.578;2022-10-16T16:35:13;3.90;;;1.57;;
14377;SDS011;7272;53.668;9.578;2022-10-16T16:38:15;3.25;;;1.70;;
14377;SDS011;7272;53.668;9.578;2022-10-16T16:41:19;2.37;;;1.57;;
14377;SDS011;7272;53.668;9.578;2022-10-16T16:44:22;3.47;;;1.70;;
14377;SDS011;7272;53.668;9.578;2022-10-16T16:47:24;3.13;;;1.60;;
14377;SDS011;7272;53.668;9.578;2022-10-16T16:50:27;4.77;;;1.27;;
14377;SDS011;7272;53.668;9.578;2022-10-16T16:53:29;1.27;;;1.17;;
14377;SDS011;7272;53.668;9.578;2022-10-16T16:56:32;32.07;;;22.70;;
14377;SDS011;7272;53.668;9.578;2022-10-16T16:59:35;10.63;;;7.33;;
14377;SDS011;7272;53.668;9.578;2022-10-16T17:02:37;5.93;;;3.67;;
14377;SDS011;7272;53.668;9.578;2022-10-16T17:05:43;5.43;;;3.80;;
14377;SDS011;7272;53.668;9.578;2022-10-16T17:08:55;2.57;;;2.30;;
14377;SDS011;7272;53.668;9.578;2022-10-16T17:11:59;2.73;;;1.87;;
14377;SDS011;7272;53.668;9.578;2022-10-16T17:15:01;4.47;;;1.80;;
14377;SDS011;7272;53.668;9.578;2022-10-16T17:18:04;2.53;;;1.40;;
14377;SDS011;7272;53.668;9.578;2022-10-16T17:21:06;3.00;;;1.17;;
14377;SDS011;7272;53.668;9.578;2022-10-16T17:24:10;2.83;;;1.43;;
14377;SDS011;7272;53.668;9.578;2022-10-16T17:27:14;4.37;;;1.57;;
14377;SDS011;7272;53.668;9.578;2022-10-16T17:30:16;2.63;;;1.50;;
14377;SDS011;7272;53.668;9.578;2022-10-16T17:33:18;1.97;;;1.23;;
14377;SDS011;7272;53.668;9.578;2022-10-16T17:36:20;4.23;;;1.40;;
14377;SDS011;7272;53.668;9.578;2022-10-16T17:39:23;6.63;;;2.23;;
14377;SDS011;7272;53.668;9.578;2022-10-16T17:42:27;3.77;;;1.73;;
14377;SDS011;7272;53.668;9.578;2022-10-16T17:45:29;2.53;;;1.77;;
14377;SDS011;7272;53.668;9.578;2022-10-16T17:48:31;4.18;;;2.65;;
14377;SDS011;7272;53.668;9.578;2022-10-16T17:51:37;5.03;;;2.40;;
14377;SDS011;7272;53.668;9.578;2022-10-16T17:54:39;2.63;;;1.60;;
14377;SDS011;7272;53.668;9.578;2022-10-16T17:57:44;3.07;;;1.80;;
14377;SDS011;7272;53.668;9.578;2022-10-16T18:00:47;2.17;;;1.70;;
14377;SDS011;7272;53.668;9.578;2022-10-16T18:03:49;4.27;;;1.97;;
14377;SDS011;7272;53.668;9.578;2022-10-16T18:06:52;3.33;;;1.90;;
14377;SDS011;7272;53.668;9.578;2022-10-16T18:09:55;3.57;;;2.37;;
14377;SDS011;7272;53.668;9.578;2022-10-16T18:12:58;5.30;;;3.55;;
14377;SDS011;7272;53.668;9.578;2022-10-16T18:16:01;3.87;;;2.73;;
14377;SDS011;7272;53.668;9.578;2022-10-16T18:19:04;4.97;;;2.70;;
14377;SDS011;7272;53.668;9.578;2022-10-16T18:22:06;3.60;;;2.60;;
14377;SDS011;7272;53.668;9.578;2022-10-16T18:25:08;3.40;;;1.97;;
14377;SDS011;7272;53.668;9.578;2022-10-16T18:28:12;3.90;;;2.37;;
14377;SDS011;7272;53.668;9.578;2022-10-16T18:31:15;3.30;;;1.90;;
14377;SDS011;7272;53.668;9.578;2022-10-16T18:34:18;3.50;;;1.90;;
14377;SDS011;7272;53.668;9.578;2022-10-16T18:37:21;3.92;;;2.80;;
14377;SDS011;7272;53.668;9.578;2022-10-16T18:40:23;2.67;;;1.93;;
14377;SDS011;7272;53.668;9.578;2022-10-16T18:43:27;2.20;;;1.97;;
14377;SDS011;7272;53.668;9.578;2022-10-16T18:46:29;3.13;;;2.03;;
14377;SDS011;7272;53.668;9.578;2022-10-16T18:49:31;3.10;;;2.00;;
14377;SDS011;7272;53.668;9.578;2022-10-16T18:52:33;4.27;;;2.30;;
14377;SDS011;7272;53.668;9.578;2022-10-16T18:55:35;1.80;;;1.70;;
14377;SDS011;7272;53.668;9.578;2022-10-16T18:58:39;3.10;;;2.13;;